Terminal Aerodrome Forecast
Issued by NWS

Home | Current Version | Previous Version | Graphics & Text | Print | Product List | Glossary Off
Versions: 1 2 3 4 5 6 7 8 9 10 11 12 13 14 15 16 17 18 19 20 21 22 23 24

000
FTUS43 KDDC 281120
TAFHYS
TAF
KHYS 281120Z 2812/2912 21013KT P6SM SCT150
     FM281700 32012KT P6SM SCT050
     FM282000 01011KT P6SM VCTS OVC050CB=

USA.gov is the U.S. government's official web portal to all federal, state and local government web resources and services.